Time;durP1;ratioP1;P1;durP2;ratioP2;P2;SDS_P1;SDS_P2;PMS_P1;PMS_P2;Temp;Humidity;BMP_temperature;BMP_pressure;BME280_temperature;BME280_humidity;BME280_pressure;Samples;Min_cycle;Max_cycle;Signal;HPM_P1;HPM_P2
2023/12/25 00:01:51;;;;;;;;;;;;;;;7.43;59.70;99401.69;5032937;28;19988;-84
2023/12/25 00:04:16;;;;;;;;;;;;;;;7.42;59.90;99409.69;5032941;28;19960;-85
2023/12/25 00:06:41;;;;;;;;;;;;;;;7.41;60.47;99408.88;5031554;28;20047;-85
2023/12/25 00:09:06;;;;;;;;;;;;;;;7.43;60.20;99413.97;5031641;28;20004;-85
2023/12/25 00:11:32;;;;;;;;;;;;;;;7.41;59.80;99424.63;5032651;28;19917;-85
2023/12/25 00:13:57;;;;;;;;;;;;;;;7.40;59.68;99425.59;5032615;28;19916;-85
2023/12/25 00:16:26;;;;;;;;;;;;;;;7.43;59.65;99421.84;5032759;28;20302;-85
2023/12/25 00:18:51;;;;;;;;;;;;;;;7.40;59.70;99428.22;5032664;28;20430;-85
2023/12/25 00:21:16;;;;;;;;;;;;;;;7.41;60.42;99416.75;5032749;28;19992;-86
2023/12/25 00:23:41;;;;;;;;;;;;;;;7.39;60.26;99410.84;5032564;28;19971;-85
2023/12/25 00:26:07;;;;;;;;;;;;;;;7.41;59.93;99406.25;5032628;28;19913;-86
2023/12/25 00:28:33;;;;;;;;;;;;;;;7.42;59.66;99418.38;5032564;28;19921;-86
2023/12/25 00:30:58;;;;;;;;;;;;;;;7.41;60.16;99416.75;5031064;28;19917;-85
2023/12/25 00:33:23;;;;;;;;;;;;;;;7.36;60.60;99421.66;5032330;28;20397;-84
2023/12/25 00:35:48;;;;;;;;;;;;;;;7.36;60.26;99418.22;5031014;28;19920;-85
2023/12/25 00:38:14;;;;;;;;;;;;;;;7.36;59.92;99410.31;5032301;28;19921;-84
2023/12/25 00:40:39;;;;;;;;;;;;;;;7.34;59.88;99413.13;5031068;28;20000;-86
2023/12/25 00:43:04;;;;;;;;;;;;;;;7.34;59.60;99413.94;5031026;28;19917;-85
2023/12/25 00:45:29;;;;;;;;;;;;;;;7.33;59.82;99412.28;5032318;28;19913;-86
2023/12/25 00:47:55;;;;;;;;;;;;;;;7.35;60.60;99406.88;5032126;28;19948;-85
2023/12/25 00:50:20;;;;;;;;;;;;;;;7.34;60.66;99408.69;5032381;28;19966;-86
2023/12/25 00:52:45;;;;;;;;;;;;;;;7.30;60.75;99406.53;5031054;28;19920;-85
2023/12/25 00:55:10;;;;;;;;;;;;;;;7.27;60.54;99414.75;5031012;28;20449;-85
2023/12/25 00:57:36;;;;;;;;;;;;;;;7.27;60.18;99417.38;5032350;28;19920;-85
2023/12/25 01:00:01;;;;;;;;;;;;;;;7.23;60.23;99418.66;5031971;28;20002;-85
2023/12/25 01:02:26;;;;;;;;;;;;;;;7.23;60.31;99418.66;5030642;28;19913;-85
2023/12/25 01:04:51;;;;;;;;;;;;;;;7.25;60.10;99414.06;5030575;28;19951;-85
2023/12/25 01:07:17;;;;;;;;;;;;;;;7.25;60.55;99408.81;5030554;28;20000;-86
2023/12/25 01:09:42;;;;;;;;;;;;;;;7.26;59.92;99403.41;5031855;28;19913;-85
2023/12/25 01:12:09;;;;;;;;;;;;;;;7.23;60.42;99406.34;5031816;28;20008;-85
2023/12/25 01:14:34;;;;;;;;;;;;;;;7.23;59.83;99413.41;5031656;28;19971;-85
2023/12/25 01:17:00;;;;;;;;;;;;;;;7.21;60.53;99418.81;5031987;28;19915;-85
2023/12/25 01:19:25;;;;;;;;;;;;;;;7.17;60.49;99408.81;5030584;28;19909;-85
2023/12/25 01:21:50;;;;;;;;;;;;;;;7.18;60.45;99398.13;5030679;28;20279;-84
2023/12/25 01:24:16;;;;;;;;;;;;;;;7.17;60.45;99399.13;5030585;28;20509;-85
2023/12/25 01:26:41;;;;;;;;;;;;;;;7.15;60.79;99392.38;5031213;28;19921;-85
2023/12/25 01:29:06;;;;;;;;;;;;;;;7.17;60.32;99390.41;5031821;28;19913;-85
2023/12/25 01:31:31;;;;;;;;;;;;;;;7.18;60.61;99386.81;5030332;28;19917;-85
2023/12/25 01:33:57;;;;;;;;;;;;;;;7.16;60.46;99386.16;5030557;28;20127;-85
2023/12/25 01:36:22;;;;;;;;;;;;;;;7.15;60.43;99385.34;5031637;28;20348;-85
2023/12/25 01:38:47;;;;;;;;;;;;;;;7.14;60.96;99388.94;5031566;28;19925;-85
2023/12/25 01:41:13;;;;;;;;;;;;;;;7.13;60.86;99383.84;5030399;28;19913;-85
2023/12/25 01:43:38;;;;;;;;;;;;;;;7.06;61.05;99373.16;5031747;28;19905;-84
2023/12/25 01:46:03;;;;;;;;;;;;;;;7.06;60.90;99374.97;5031955;28;19917;-85
2023/12/25 01:48:29;;;;;;;;;;;;;;;7.03;61.68;99376.09;5030404;28;20441;-85
2023/12/25 01:51:00;;;;;;;;;;;;;;;7.00;60.94;99379.06;5030345;28;19939;-85
2023/12/25 01:53:26;;;;;;;;;;;;;;;6.96;61.19;99373.31;5030354;28;19917;-86
2023/12/25 01:55:51;;;;;;;;;;;;;;;6.95;61.54;99369.03;5031580;28;19913;-85
2023/12/25 01:58:16;;;;;;;;;;;;;;;6.96;61.50;99356.72;5030284;28;20365;-85
2023/12/25 02:00:41;;;;;;;;;;;;;;;6.94;61.66;99353.44;5030332;28;19962;-85
2023/12/25 02:03:07;;;;;;;;;;;;;;;6.93;61.50;99351.81;5031688;28;20402;-86
2023/12/25 02:05:32;;;;;;;;;;;;;;;6.94;60.76;99350.81;5030114;28;19913;-85
2023/12/25 02:07:58;;;;;;;;;;;;;;;6.95;61.36;99342.78;5030100;28;20000;-85
2023/12/25 02:10:27;;;;;;;;;;;;;;;6.94;61.00;99343.75;5031181;28;19913;-85
2023/12/25 02:12:53;;;;;;;;;;;;;;;6.96;60.83;99331.31;5030025;28;19913;-85
2023/12/25 02:15:18;;;;;;;;;;;;;;;6.96;61.62;99331.31;5032267;28;20003;-84
2023/12/25 02:17:44;;;;;;;;;;;;;;;6.96;61.09;99330.47;5033547;28;19913;-85
2023/12/25 02:20:10;;;;;;;;;;;;;;;6.98;60.78;99337.22;5033603;28;20361;-85
2023/12/25 02:22:35;;;;;;;;;;;;;;;6.98;60.88;99334.59;5033595;28;19913;-86
2023/12/25 02:25:33;;;;;;;;;;;;;;;6.98;60.78;99334.59;5034885;28;19935;-85
2023/12/25 02:28:02;;;;;;;;;;;;;;;6.98;60.98;99339.03;5011832;28;19913;-84
2023/12/25 02:30:28;;;;;;;;;;;;;;;6.99;60.92;99341.47;5034832;28;19920;-86
2023/12/25 02:32:53;;;;;;;;;;;;;;;6.98;60.58;99337.22;5034705;28;19913;-84
2023/12/25 02:35:18;;;;;;;;;;;;;;;7.00;61.04;99352.81;5034590;28;20389;-85
2023/12/25 02:37:44;;;;;;;;;;;;;;;6.75;61.08;99303.84;5034345;28;19971;-84
2023/12/25 02:40:09;;;;;;;;;;;;;;;6.98;60.75;99345.09;5033358;28;19948;-85
2023/12/25 02:42:35;;;;;;;;;;;;;;;6.97;61.40;99353.13;5034584;28;20386;-85
2023/12/25 02:45:00;;;;;;;;;;;;;;;6.95;61.14;99349.84;5033064;28;19913;-85
2023/12/25 02:47:26;;;;;;;;;;;;;;;6.98;61.07;99345.09;5034249;28;19995;-85
2023/12/25 02:49:51;;;;;;;;;;;;;;;6.98;61.41;99345.09;5033230;28;20007;-85
2023/12/25 02:52:17;;;;;;;;;;;;;;;6.97;60.62;99359.19;5034336;28;20005;-85
2023/12/25 02:54:42;;;;;;;;;;;;;;;6.96;61.36;99362.81;5034128;28;19913;-84
2023/12/25 02:57:07;;;;;;;;;;;;;;;6.94;61.25;99359.50;5034175;28;19920;-85
2023/12/25 02:59:32;;;;;;;;;;;;;;;6.95;61.04;99360.34;5032644;28;20415;-85
2023/12/25 03:01:58;;;;;;;;;;;;;;;6.96;61.19;99361.97;5033792;28;19913;-85
2023/12/25 03:04:23;;;;;;;;;;;;;;;6.96;60.70;99360.19;5033758;28;20494;-84
2023/12/25 03:06:48;;;;;;;;;;;;;;;6.93;61.48;99357.88;5032509;28;19920;-85
2023/12/25 03:09:14;;;;;;;;;;;;;;;6.92;61.32;99353.59;5034080;28;19927;-83
2023/12/25 03:11:39;;;;;;;;;;;;;;;6.87;61.40;99353.25;5032578;28;20004;-85
2023/12/25 03:14:04;;;;;;;;;;;;;;;6.87;60.91;99348.00;5032512;28;19913;-84
2023/12/25 03:16:29;;;;;;;;;;;;;;;6.88;60.89;99354.91;5032462;28;19913;-84
2023/12/25 03:18:55;;;;;;;;;;;;;;;6.82;61.73;99355.53;5032410;28;19920;-84
2023/12/25 03:21:21;;;;;;;;;;;;;;;6.78;60.86;99356.84;5032320;28;19913;-84
2023/12/25 03:23:46;;;;;;;;;;;;;;;6.78;61.49;99350.75;5032304;28;19963;-85
2023/12/25 03:26:12;;;;;;;;;;;;;;;6.74;61.52;99358.13;5032550;28;19912;-85
2023/12/25 03:28:37;;;;;;;;;;;;;;;6.72;61.54;99352.22;5032372;28;20402;-85
2023/12/25 03:31:02;;;;;;;;;;;;;;;6.72;61.71;99357.47;5032206;28;19987;-85
2023/12/25 03:33:28;;;;;;;;;;;;;;;6.75;61.75;99362.41;5033636;28;19978;-85
2023/12/25 03:35:53;;;;;;;;;;;;;;;6.73;61.78;99358.28;5033424;28;19913;-85
2023/12/25 03:38:18;;;;;;;;;;;;;;;6.69;61.81;99355.16;5031926;28;20008;-84
2023/12/25 03:40:43;;;;;;;;;;;;;;;6.66;61.44;99361.50;5033197;28;19913;-85
2023/12/25 03:43:09;;;;;;;;;;;;;;;6.61;62.07;99358.53;5031767;28;19913;-85
2023/12/25 03:45:34;;;;;;;;;;;;;;;6.61;61.98;99348.03;5033117;28;20392;-85
2023/12/25 03:47:59;;;;;;;;;;;;;;;6.61;61.54;99347.22;5032993;28;20432;-86
2023/12/25 03:50:25;;;;;;;;;;;;;;;6.56;61.36;99357.38;5031909;28;19919;-85
2023/12/25 03:52:50;;;;;;;;;;;;;;;6.57;61.71;99351.13;5033394;28;20295;-83
2023/12/25 03:55:15;;;;;;;;;;;;;;;6.57;61.52;99338.84;5032977;28;19913;-85
2023/12/25 03:57:40;;;;;;;;;;;;;;;6.57;61.76;99345.91;5031737;28;19952;-85
2023/12/25 04:00:06;;;;;;;;;;;;;;;6.55;61.16;99353.91;5032986;28;19971;-85
2023/12/25 04:02:31;;;;;;;;;;;;;;;6.52;61.76;99351.59;5031684;28;19913;-85
2023/12/25 04:04:57;;;;;;;;;;;;;;;6.50;61.59;99347.50;5031647;28;19917;-85
2023/12/25 04:07:22;;;;;;;;;;;;;;;6.52;61.20;99342.91;5031626;28;20008;-86
2023/12/25 04:09:47;;;;;;;;;;;;;;;6.48;61.37;99339.78;5032938;28;19917;-86
2023/12/25 04:12:12;;;;;;;;;;;;;;;6.49;61.50;99338.81;5032833;28;19921;-86
2023/12/25 04:14:38;;;;;;;;;;;;;;;6.51;61.23;99334.22;5032606;28;19913;-85
2023/12/25 04:17:04;;;;;;;;;;;;;;;6.49;61.53;99338.81;5031211;28;19945;-86
2023/12/25 04:19:29;;;;;;;;;;;;;;;6.50;61.17;99335.22;5032605;28;19913;-84
2023/12/25 04:21:54;;;;;;;;;;;;;;;6.50;61.64;99331.75;5032988;28;20425;-85
2023/12/25 04:24:19;;;;;;;;;;;;;;;6.49;61.63;99330.13;5032630;28;19920;-85
2023/12/25 04:26:45;;;;;;;;;;;;;;;6.50;61.14;99334.38;5031271;28;20042;-84
2023/12/25 04:29:10;;;;;;;;;;;;;;;6.47;61.73;99340.78;5032683;28;19913;-85
2023/12/25 04:31:35;;;;;;;;;;;;;;;6.48;61.08;99329.31;5030769;28;20012;-87
2023/12/25 04:34:01;;;;;;;;;;;;;;;6.44;61.24;99340.25;5031004;28;19920;-85
2023/12/25 04:36:26;;;;;;;;;;;;;;;6.42;61.23;99348.28;5030976;28;20326;-87
2023/12/25 04:38:51;;;;;;;;;;;;;;;6.40;61.35;99347.63;5030526;28;20004;-86
2023/12/25 04:41:20;;;;;;;;;;;;;;;6.32;61.67;99348.41;5031335;28;20374;-86
2023/12/25 04:43:46;;;;;;;;;;;;;;;6.33;61.06;99364.94;5030967;28;19967;-87
2023/12/25 04:46:11;;;;;;;;;;;;;;;6.28;61.91;99357.56;5032358;28;19913;-87
2023/12/25 04:48:36;;;;;;;;;;;;;;;6.23;61.78;99364.25;5032350;28;19913;-86
2023/12/25 04:51:02;;;;;;;;;;;;;;;6.19;61.78;99366.34;5032020;28;20387;-87
2023/12/25 04:53:29;;;;;;;;;;;;;;;6.20;61.73;99368.00;5030899;28;19913;-88
2023/12/25 04:55:54;;;;;;;;;;;;;;;6.23;61.76;99367.69;5030699;28;19936;-88
2023/12/25 04:58:20;;;;;;;;;;;;;;;6.23;61.83;99370.31;5032002;28;20394;-86
2023/12/25 05:00:46;;;;;;;;;;;;;;;6.23;61.28;99367.69;5030863;28;19927;-87
2023/12/25 05:03:11;;;;;;;;;;;;;;;6.24;61.68;99369.31;5030776;28;19936;-86
2023/12/25 05:05:36;;;;;;;;;;;;;;;6.24;61.46;99368.50;5032066;28;19920;-87
2023/12/25 05:08:01;;;;;;;;;;;;;;;6.22;60.77;99373.91;5030662;28;19956;-85
2023/12/25 05:10:27;;;;;;;;;;;;;;;6.23;61.23;99362.44;5030782;28;19986;-87
2023/12/25 05:12:52;;;;;;;;;;;;;;;6.20;60.97;99362.75;5030825;28;19912;-87
2023/12/25 05:15:17;;;;;;;;;;;;;;;6.18;60.82;99367.31;5031865;28;19921;-86
2023/12/25 05:17:43;;;;;;;;;;;;;;;6.19;61.17;99366.34;5030565;28;19914;-86
2023/12/25 05:20:08;;;;;;;;;;;;;;;6.17;60.61;99375.34;5030579;28;19913;-87
2023/12/25 05:22:34;;;;;;;;;;;;;;;6.17;60.68;99381.41;5030372;28;19971;-84
2023/12/25 05:24:59;;;;;;;;;;;;;;;6.16;60.50;99377.13;5031894;28;19949;-86
2023/12/25 05:27:24;;;;;;;;;;;;;;;6.16;61.23;99371.91;5030519;28;20379;-87
2023/12/25 05:29:49;;;;;;;;;;;;;;;6.14;61.02;99368.59;5031700;28;19956;-83
2023/12/25 05:32:15;;;;;;;;;;;;;;;6.16;60.66;99373.69;5031538;28;20386;-84
2023/12/25 05:34:40;;;;;;;;;;;;;;;6.14;60.46;99373.03;5031916;28;19913;-86
2023/12/25 05:37:05;;;;;;;;;;;;;;;6.13;60.61;99366.13;5030296;28;20383;-88
2023/12/25 05:39:30;;;;;;;;;;;;;;;6.14;60.43;99373.84;5031814;28;19913;-86
2023/12/25 05:41:56;;;;;;;;;;;;;;;6.13;60.55;99377.44;5031740;28;19913;-87
2023/12/25 05:44:21;;;;;;;;;;;;;;;6.11;60.54;99386.44;5030393;28;19913;-84
2023/12/25 05:46:47;;;;;;;;;;;;;;;6.12;60.72;99388.09;5030216;28;19963;-87
2023/12/25 05:49:12;;;;;;;;;;;;;;;6.13;60.66;99385.31;5030802;28;19944;-85
2023/12/25 05:51:38;;;;;;;;;;;;;;;6.11;60.89;99384.63;5034032;28;19928;-83
2023/12/25 05:54:03;;;;;;;;;;;;;;;6.12;60.53;99375.81;5034056;28;19913;-85
2023/12/25 05:56:28;;;;;;;;;;;;;;;6.12;60.41;99380.22;5035376;28;20409;-84
2023/12/25 05:58:53;;;;;;;;;;;;;;;6.12;61.03;99385.47;5033924;28;19920;-85
2023/12/25 06:01:19;;;;;;;;;;;;;;;6.10;60.88;99396.09;5033995;28;20402;-84
2023/12/25 06:03:44;;;;;;;;;;;;;;;6.06;60.84;99392.13;5035232;28;19920;-85
2023/12/25 06:06:10;;;;;;;;;;;;;;;6.05;60.66;99385.25;5033617;28;19909;-87
2023/12/25 06:08:35;;;;;;;;;;;;;;;6.06;60.59;99386.91;5033614;28;19916;-86
2023/12/25 06:11:00;;;;;;;;;;;;;;;6.01;61.04;99397.03;5035126;28;19918;-88
2023/12/25 06:13:26;;;;;;;;;;;;;;;6.02;60.98;99391.63;5033682;28;19936;-87
2023/12/25 06:15:51;;;;;;;;;;;;;;;5.99;60.84;99404.22;5033854;28;19917;-85
2023/12/25 06:18:17;;;;;;;;;;;;;;;6.00;61.20;99401.44;5035214;28;20449;-87
2023/12/25 06:20:42;;;;;;;;;;;;;;;6.05;61.06;99403.59;5033636;28;19936;-85
2023/12/25 06:23:07;;;;;;;;;;;;;;;6.10;60.83;99406.59;5034904;28;20309;-87
2023/12/25 06:25:33;;;;;;;;;;;;;;;6.05;60.97;99411.47;5033468;28;19958;-85
2023/12/25 06:27:58;;;;;;;;;;;;;;;6.05;61.65;99408.84;5033432;28;19913;-86
2023/12/25 06:30:24;;;;;;;;;;;;;;;6.08;61.42;99413.78;5033564;28;20313;-85
2023/12/25 06:32:49;;;;;;;;;;;;;;;6.07;61.25;99414.75;5033352;28;20421;-86
2023/12/25 06:35:14;;;;;;;;;;;;;;;6.10;61.22;99427.56;5034710;28;20388;-84
2023/12/25 06:37:39;;;;;;;;;;;;;;;6.15;61.43;99404.31;5033130;28;19928;-86
2023/12/25 06:40:05;;;;;;;;;;;;;;;6.19;61.17;99403.03;5034549;28;19913;-88
2023/12/25 06:42:30;;;;;;;;;;;;;;;6.23;61.30;99393.06;5034828;28;19967;-86
2023/12/25 06:44:56;;;;;;;;;;;;;;;6.28;60.90;99393.44;5034410;28;20007;-87
2023/12/25 06:47:21;;;;;;;;;;;;;;;6.32;61.53;99389.53;5032972;28;19913;-87
2023/12/25 06:49:46;;;;;;;;;;;;;;;6.39;60.94;99390.56;5034043;28;19905;-87
2023/12/25 06:52:11;;;;;;;;;;;;;;;6.45;60.97;99378.63;5034318;28;19917;-84
2023/12/25 06:54:37;;;;;;;;;;;;;;;6.50;60.96;99376.34;5032889;28;19913;-87
2023/12/25 06:57:02;;;;;;;;;;;;;;;6.53;61.10;99366.38;5034254;28;20314;-87
2023/12/25 06:59:27;;;;;;;;;;;;;;;6.58;60.95;99379.00;5034420;28;20003;-86
2023/12/25 07:01:54;;;;;;;;;;;;;;;6.60;60.70;99382.31;5032607;28;19928;-86
2023/12/25 07:04:19;;;;;;;;;;;;;;;6.63;61.04;99390.69;5032810;28;20390;-86
2023/12/25 07:06:45;;;;;;;;;;;;;;;6.65;61.50;99393.97;5034051;28;20028;-86
2023/12/25 07:09:13;;;;;;;;;;;;;;;6.72;61.46;99398.63;5032640;28;19913;-87
2023/12/25 07:11:39;;;;;;;;;;;;;;;6.75;61.44;99401.75;5033632;28;19924;-87
2023/12/25 07:14:04;;;;;;;;;;;;;;;6.78;61.23;99411.94;5033726;28;19913;-85
2023/12/25 07:16:29;;;;;;;;;;;;;;;6.84;60.68;99426.22;5033812;28;20386;-87
2023/12/25 07:18:55;;;;;;;;;;;;;;;6.90;61.06;99431.69;5033791;28;19971;-86
2023/12/25 07:21:21;;;;;;;;;;;;;;;6.94;60.91;99430.38;5033157;28;19913;-87
2023/12/25 07:23:46;;;;;;;;;;;;;;;6.99;60.62;99428.09;5033911;28;19975;-86
2023/12/25 07:26:11;;;;;;;;;;;;;;;7.08;60.80;99430.75;5032283;28;20363;-85
2023/12/25 07:28:37;;;;;;;;;;;;;;;7.15;60.00;99442.28;5032396;28;19920;-87
2023/12/25 07:31:02;;;;;;;;;;;;;;;7.25;60.01;99435.09;5032127;28;20020;-85
2023/12/25 07:33:27;;;;;;;;;;;;;;;7.31;59.75;99424.75;5033314;28;19913;-85
2023/12/25 07:35:53;;;;;;;;;;;;;;;7.42;59.54;99422.81;5033299;28;19924;-83
2023/12/25 07:38:18;;;;;;;;;;;;;;;7.52;59.88;99424.34;5045354;28;19925;-87
2023/12/25 07:40:43;;;;;;;;;;;;;;;7.61;59.86;99423.38;5053340;28;20439;-84
2023/12/25 07:43:10;;;;;;;;;;;;;;;7.68;59.71;99422.72;5053503;28;19913;-86
2023/12/25 07:45:38;;;;;;;;;;;;;;;7.75;59.72;99432.44;5035142;28;20051;-85
2023/12/25 07:48:03;;;;;;;;;;;;;;;7.80;60.09;99437.19;5053184;28;20453;-85
2023/12/25 07:50:29;;;;;;;;;;;;;;;7.84;59.96;99449.84;5052883;28;20007;-87
2023/12/25 07:52:54;;;;;;;;;;;;;;;7.90;59.44;99458.88;5035575;28;20000;-86
2023/12/25 07:55:19;;;;;;;;;;;;;;;7.99;59.57;99455.28;5052520;28;19912;-86
2023/12/25 07:57:44;;;;;;;;;;;;;;;8.06;59.42;99463.34;5053123;28;19952;-86
2023/12/25 08:00:10;;;;;;;;;;;;;;;8.14;59.29;99458.91;5035059;28;19996;-86
2023/12/25 08:02:35;;;;;;;;;;;;;;;8.22;59.20;99472.09;5052803;28;19913;-86
2023/12/25 08:05:02;;;;;;;;;;;;;;;8.32;58.80;99471.09;5052821;28;19920;-86
2023/12/25 08:07:27;;;;;;;;;;;;;;;8.38;58.66;99473.91;5052735;28;19913;-83
2023/12/25 08:09:53;;;;;;;;;;;;;;;8.44;58.38;99478.50;5052679;28;20360;-82
2023/12/25 08:12:18;;;;;;;;;;;;;;;8.51;58.75;99476.03;5051755;28;19965;-83
2023/12/25 08:14:43;;;;;;;;;;;;;;;8.59;58.25;99478.66;5052596;28;19919;-83
2023/12/25 08:17:08;;;;;;;;;;;;;;;8.65;58.37;99466.63;5052765;28;19920;-84
2023/12/25 08:19:34;;;;;;;;;;;;;;;8.73;58.04;99469.25;5052605;28;19976;-84
2023/12/25 08:21:59;;;;;;;;;;;;;;;8.79;58.26;99464.13;5052670;28;19913;-84
2023/12/25 08:24:25;;;;;;;;;;;;;;;8.85;58.18;99460.84;5052864;28;20366;-83
2023/12/25 08:26:50;;;;;;;;;;;;;;;8.91;57.98;99465.41;5052370;28;20381;-84
2023/12/25 08:29:16;;;;;;;;;;;;;;;8.94;58.23;99458.22;5052420;28;19913;-83
2023/12/25 08:31:41;;;;;;;;;;;;;;;8.98;58.64;99457.69;5052087;28;20420;-84
2023/12/25 08:34:06;;;;;;;;;;;;;;;9.03;58.23;99454.56;5052290;28;19975;-84
2023/12/25 08:36:31;;;;;;;;;;;;;;;9.07;58.24;99451.41;5052345;28;19913;-83
2023/12/25 08:38:57;;;;;;;;;;;;;;;9.14;58.26;99455.00;5052138;28;19920;-84
2023/12/25 08:41:22;;;;;;;;;;;;;;;9.21;57.97;99449.88;5034387;28;20382;-83
2023/12/25 08:43:47;;;;;;;;;;;;;;;9.27;58.38;99451.81;5034326;28;19916;-84
2023/12/25 08:46:13;;;;;;;;;;;;;;;9.33;58.32;99456.41;5052034;28;19999;-84
2023/12/25 08:48:38;;;;;;;;;;;;;;;9.40;58.33;99457.34;5051886;28;19913;-84
2023/12/25 08:51:04;;;;;;;;;;;;;;;9.48;58.14;99456.50;5034125;28;19917;-83
2023/12/25 08:53:29;;;;;;;;;;;;;;;9.57;58.21;99458.91;5034129;28;19917;-84
2023/12/25 08:55:55;;;;;;;;;;;;;;;9.66;57.96;99453.59;5033950;28;19959;-83
2023/12/25 08:58:21;;;;;;;;;;;;;;;9.72;57.88;99459.00;5051944;28;20446;-83
2023/12/25 09:00:47;;;;;;;;;;;;;;;9.77;57.61;99450.56;5033927;28;19917;-84
2023/12/25 09:03:12;;;;;;;;;;;;;;;9.86;57.38;99449.53;5033875;28;20012;-84
2023/12/25 09:05:37;;;;;;;;;;;;;;;9.93;57.47;99439.91;5051772;28;19955;-83
2023/12/25 09:08:03;;;;;;;;;;;;;;;10.00;57.89;99440.84;5033877;28;19914;-82
2023/12/25 09:10:28;;;;;;;;;;;;;;;10.06;57.83;99437.50;5033781;28;20394;-83
2023/12/25 09:12:53;;;;;;;;;;;;;;;10.12;58.10;99435.97;5051619;28;19917;-83
2023/12/25 09:15:19;;;;;;;;;;;;;;;10.25;57.37;99422.19;5033914;28;19912;-83
2023/12/25 09:17:45;;;;;;;;;;;;;;;10.38;56.95;99414.50;5051630;28;19921;-83
2023/12/25 09:20:11;;;;;;;;;;;;;;;10.50;56.40;99413.09;5051594;28;20321;-83
2023/12/25 09:22:36;;;;;;;;;;;;;;;10.66;56.30;99418.19;5033857;28;19913;-83
2023/12/25 09:25:02;;;;;;;;;;;;;;;10.80;56.47;99416.56;5055557;28;19966;-83
2023/12/25 09:27:28;;;;;;;;;;;;;;;11.04;55.51;99420.72;5037943;28;19999;-83
2023/12/25 09:29:54;;;;;;;;;;;;;;;11.30;54.72;99412.31;5055764;28;19920;-83
2023/12/25 09:32:19;;;;;;;;;;;;;;;11.53;53.47;99406.88;5037666;28;19917;-83
2023/12/25 09:34:45;;;;;;;;;;;;;;;11.73;52.91;99410.53;5055587;28;20453;-82
2023/12/25 09:37:10;;;;;;;;;;;;;;;11.88;53.44;99403.41;5055684;28;19929;-82
2023/12/25 09:39:35;;;;;;;;;;;;;;;11.98;53.32;99401.28;5055865;28;19919;-82
2023/12/25 09:42:01;;;;;;;;;;;;;;;12.02;53.01;99397.25;5055326;28;19920;-82
2023/12/25 09:44:28;;;;;;;;;;;;;;;12.04;53.16;99391.75;5037482;28;19913;-82
2023/12/25 09:46:53;;;;;;;;;;;;;;;12.05;52.55;99398.69;5037445;28;19913;-82
2023/12/25 09:49:20;;;;;;;;;;;;;;;12.09;52.34;99394.66;5055188;28;19919;-82
2023/12/25 09:51:46;;;;;;;;;;;;;;;12.17;51.75;99396.34;5055368;28;19971;-82
2023/12/25 09:54:11;;;;;;;;;;;;;;;12.25;53.18;99385.59;5036235;28;19948;-82
2023/12/25 09:56:37;;;;;;;;;;;;;;;12.30;52.55;99384.03;5037249;28;20353;-82
2023/12/25 09:59:04;;;;;;;;;;;;;;;12.37;52.10;99384.06;5037776;28;19913;-82
2023/12/25 10:01:29;;;;;;;;;;;;;;;12.46;52.17;99377.59;5055195;28;19913;-83
2023/12/25 10:03:55;;;;;;;;;;;;;;;12.57;52.64;99371.75;5055184;28;20339;-82
2023/12/25 10:06:20;;;;;;;;;;;;;;;12.66;51.73;99367.97;5055243;28;19927;-82
2023/12/25 10:08:46;;;;;;;;;;;;;;;12.80;51.45;99370.69;5055245;28;19936;-82
2023/12/25 10:11:14;;;;;;;;;;;;;;;12.94;52.08;99362.59;5054736;28;20400;-81
2023/12/25 10:13:40;;;;;;;;;;;;;;;13.06;50.10;99357.56;5055207;28;19916;-82
2023/12/25 10:16:05;;;;;;;;;;;;;;;13.15;50.10;99356.34;5055166;28;19913;-82
2023/12/25 10:18:31;;;;;;;;;;;;;;;13.22;50.02;99357.22;5055068;28;19935;-82
2023/12/25 10:20:57;;;;;;;;;;;;;;;13.27;50.06;99356.63;5054579;28;19913;-82
2023/12/25 10:23:29;;;;;;;;;;;;;;;13.33;50.74;99340.75;5054722;28;19913;-82
2023/12/25 10:25:55;;;;;;;;;;;;;;;13.40;49.49;99339.97;5054682;28;19920;-81
2023/12/25 10:28:24;;;;;;;;;;;;;;;13.46;50.89;99334.66;5036679;28;20455;-82
2023/12/25 10:31:02;;;;;;;;;;;;;;;13.51;50.36;99334.06;5054619;28;19909;-82
2023/12/25 10:33:27;;;;;;;;;;;;;;;13.57;49.62;99327.94;5036518;28;20010;-81
2023/12/25 10:36:04;;;;;;;;;;;;;;;13.63;50.46;99321.84;5035834;28;20421;-82
2023/12/25 10:38:33;;;;;;;;;;;;;;;13.68;48.08;99322.03;5054392;28;19927;-82
2023/12/25 10:41:15;;;;;;;;;;;;;;;13.76;47.95;99323.69;5054395;28;19917;-82
2023/12/25 10:43:41;;;;;;;;;;;;;;;13.85;47.44;99319.78;5054417;28;19913;-81
2023/12/25 10:46:07;;;;;;;;;;;;;;;13.89;47.48;99313.88;5054270;28;20003;-81
2023/12/25 10:48:32;;;;;;;;;;;;;;;13.93;49.11;99312.44;5054140;28;19920;-81
2023/12/25 10:50:58;;;;;;;;;;;;;;;13.96;46.59;99313.88;5053961;28;20381;-82
2023/12/25 10:53:24;;;;;;;;;;;;;;;13.96;46.47;99306.72;5054213;28;19970;-81
2023/12/25 10:55:51;;;;;;;;;;;;;;;14.04;48.70;99302.22;5054047;28;19913;-82
2023/12/25 10:58:16;;;;;;;;;;;;;;;14.10;48.33;99302.22;5054247;28;19917;-82
2023/12/25 11:00:50;;;;;;;;;;;;;;;14.12;46.96;99299.34;5053808;28;19919;-82
2023/12/25 11:03:15;;;;;;;;;;;;;;;14.11;46.97;99300.38;5053858;28;19956;-82
2023/12/25 11:05:41;;;;;;;;;;;;;;;14.12;46.94;99297.53;5054246;28;19912;-82
2023/12/25 11:08:07;;;;;;;;;;;;;;;14.15;46.26;99291.81;5053984;28;19917;-82
2023/12/25 11:10:32;;;;;;;;;;;;;;;14.18;46.73;99287.94;5053821;28;19905;-82
2023/12/25 11:12:58;;;;;;;;;;;;;;;14.24;46.73;99284.44;5053352;28;19924;-82
2023/12/25 11:15:24;;;;;;;;;;;;;;;14.28;47.12;99280.34;5053667;28;19917;-82
2023/12/25 11:17:49;;;;;;;;;;;;;;;14.33;47.33;99283.19;5035710;28;20313;-82
2023/12/25 11:20:15;;;;;;;;;;;;;;;14.36;47.46;99281.97;5053624;28;19982;-82
2023/12/25 11:22:41;;;;;;;;;;;;;;;14.35;47.51;99291.78;5053333;28;19950;-82
2023/12/25 11:25:18;;;;;;;;;;;;;;;14.36;47.66;99287.28;5053648;28;19924;-82
2023/12/25 11:27:49;;;;;;;;;;;;;;;14.32;47.00;99292.19;5035652;28;20349;-81
2023/12/25 11:30:14;;;;;;;;;;;;;;;14.34;47.75;99284.84;5053549;28;20021;-81
2023/12/25 11:32:45;;;;;;;;;;;;;;;14.33;47.60;99280.53;5035581;28;20003;-81
2023/12/25 11:35:11;;;;;;;;;;;;;;;14.41;47.89;99280.31;5035475;28;19912;-81
2023/12/25 11:37:37;;;;;;;;;;;;;;;14.47;46.98;99278.69;5035252;28;20444;-82
2023/12/25 11:40:05;;;;;;;;;;;;;;;14.52;47.14;99270.91;5053210;28;19956;-82
2023/12/25 11:42:31;;;;;;;;;;;;;;;14.51;45.64;99270.09;5053101;28;20416;-82
2023/12/25 11:45:00;;;;;;;;;;;;;;;14.49;45.82;99277.47;5035238;28;19913;-82
2023/12/25 11:47:39;;;;;;;;;;;;;;;14.47;46.68;99276.03;5052048;28;20004;-81
2023/12/25 11:50:04;;;;;;;;;;;;;;;14.42;47.14;99283.78;5053452;28;19912;-82
2023/12/25 11:52:53;;;;;;;;;;;;;;;14.38;45.74;99282.56;5035229;28;20039;-82
2023/12/25 11:55:20;;;;;;;;;;;;;;;14.30;46.82;99281.78;5035150;28;19986;-81
2023/12/25 11:57:45;;;;;;;;;;;;;;;14.26;46.12;99288.53;5053010;28;19915;-82
2023/12/25 12:00:14;;;;;;;;;;;;;;;14.30;45.00;99283.63;5052722;28;19999;-82
2023/12/25 12:02:40;;;;;;;;;;;;;;;14.28;45.92;99277.69;5034979;28;20008;-82
2023/12/25 12:05:05;;;;;;;;;;;;;;;14.28;47.38;99285.66;5035068;28;19956;-82
2023/12/25 12:07:40;;;;;;;;;;;;;;;14.26;46.81;99283.22;5150999;27;20003;-80
2023/12/25 12:10:06;;;;;;;;;;;;;;;14.25;47.55;99280.78;5151055;27;19950;-81
2023/12/25 12:12:31;;;;;;;;;;;;;;;14.21;47.37;99279.56;5150940;27;19912;-81
2023/12/25 12:14:56;;;;;;;;;;;;;;;14.21;47.31;99284.88;5151020;27;19911;-81
2023/12/25 12:17:22;;;;;;;;;;;;;;;14.23;47.88;99282.81;5151123;27;20345;-81
2023/12/25 12:19:48;;;;;;;;;;;;;;;14.20;47.88;99272.63;5151014;27;19958;-81
2023/12/25 12:22:16;;;;;;;;;;;;;;;14.19;47.99;99276.28;5132240;27;19950;-81
2023/12/25 12:24:41;;;;;;;;;;;;;;;14.20;47.54;99280.59;5150578;27;20418;-81
2023/12/25 12:27:08;;;;;;;;;;;;;;;14.19;48.21;99287.72;5150711;27;19915;-81
2023/12/25 12:29:34;;;;;;;;;;;;;;;14.19;48.99;99286.91;5150555;27;19951;-81
2023/12/25 12:31:59;;;;;;;;;;;;;;;14.20;48.39;99280.59;5131989;27;20442;-81
2023/12/25 12:34:24;;;;;;;;;;;;;;;14.21;47.30;99284.88;5150463;27;19911;-81
2023/12/25 12:36:58;;;;;;;;;;;;;;;14.28;47.86;99280.34;5150429;27;20311;-81
2023/12/25 12:39:23;;;;;;;;;;;;;;;14.41;47.91;99285.63;5132223;27;20395;-80
2023/12/25 12:41:48;;;;;;;;;;;;;;;14.49;47.06;99292.59;5131775;27;19946;-79
2023/12/25 12:44:14;;;;;;;;;;;;;;;14.51;47.76;99274.59;5131722;27;19911;-80
2023/12/25 12:46:39;;;;;;;;;;;;;;;14.48;47.42;99281.16;5150220;27;19915;-81